Time;durP1;ratioP1;P1;durP2;ratioP2;P2;SDS_P1;SDS_P2;PMS_P1;PMS_P2;Temp;Humidity;BMP_temperature;BMP_pressure;BME280_temperature;BME280_humidity;BME280_pressure;Samples;Min_cycle;Max_cycle;Signal;HPM_P1;HPM_P2
2022/10/09 16:29:25;;;;;;;7.90;1.20;;;;;;;10.77;63.70;99918.89;100467;1318;544913;-91
2022/10/09 16:31:55;;;;;;;5.80;0.80;;;;;;;10.68;63.38;99928.69;102227;1290;24443;-89
2022/10/09 16:34:22;;;;;;;3.90;0.70;;;;;;;10.60;63.55;99928.64;102738;1319;23657;-87
2022/10/09 16:36:50;;;;;;;4.30;0.60;;;;;;;10.56;63.60;99931.69;102431;1294;24452;-84
2022/10/09 16:39:17;;;;;;;6.20;0.90;;;;;;;10.51;63.63;99934.61;102656;1302;22500;-84
2022/10/09 16:41:44;;;;;;;6.20;1.00;;;;;;;10.44;63.73;99934.32;102486;1315;22838;-91
2022/10/09 16:44:15;;;;;;;10.10;2.70;;;;;;;10.39;63.81;99938.39;102656;1316;226022;-89
2022/10/09 16:46:42;;;;;;;6.40;1.70;;;;;;;10.32;63.78;99941.45;103536;1279;22897;-85
2022/10/09 16:49:15;;;;;;;9.20;1.50;;;;;;;10.22;63.84;99940.05;103582;1276;22451;-85
2022/10/09 16:51:43;;;;;;;7.00;1.30;;;;;;;10.10;63.80;99937.32;103678;1306;24175;-88
2022/10/09 16:54:10;;;;;;;7.20;1.20;;;;;;;9.95;63.98;99936.52;103738;1299;22860;-87
2022/10/09 16:56:42;;;;;;;7.30;2.10;;;;;;;9.84;64.04;99935.04;103543;1307;22511;-88
2022/10/09 16:59:11;;;;;;;12.00;3.00;;;;;;;9.73;64.06;99938.29;103601;1307;25340;-89
2022/10/09 17:01:42;;;;;;;9.40;4.20;;;;;;;9.60;64.12;99940.80;106883;1297;22211;-88
2022/10/09 17:04:10;;;;;;;10.80;3.00;;;;;;;9.50;64.03;99942.36;106802;1307;22118;-87
2022/10/09 17:06:40;;;;;;;10.90;4.40;;;;;;;9.43;64.33;99939.73;106672;1307;22898;-88
2022/10/09 17:09:10;;;;;;;9.30;3.40;;;;;;;9.38;64.35;99939.63;106583;1307;22063;-85
2022/10/09 17:11:37;;;;;;;10.00;3.80;;;;;;;9.35;64.32;99941.96;106573;1304;22084;-86
2022/10/09 17:14:04;;;;;;;11.20;3.80;;;;;;;9.31;64.34;99943.92;106583;1305;22112;-86
2022/10/09 17:16:34;;;;;;;7.50;2.80;;;;;;;9.27;64.12;99941.64;106556;1309;22080;-84
2022/10/09 17:19:02;;;;;;;9.00;2.60;;;;;;;9.22;64.41;99943.13;106565;1309;22881;-85
2022/10/09 17:21:29;;;;;;;6.70;2.30;;;;;;;9.17;64.31;99946.24;106619;1309;22076;-84
2022/10/09 17:23:59;;;;;;;9.70;2.70;;;;;;;9.13;64.34;99946.48;106541;1306;22332;-84
2022/10/09 17:26:28;;;;;;;7.40;2.50;;;;;;;9.09;64.30;99949.73;106569;1309;22066;-84
2022/10/09 17:28:58;;;;;;;8.40;2.30;;;;;;;9.03;64.43;99942.58;106509;1309;22008;-84
2022/10/09 17:31:27;;;;;;;10.10;2.50;;;;;;;8.96;64.40;99942.75;106517;1304;22086;-84
2022/10/09 17:33:58;;;;;;;11.20;2.60;;;;;;;8.89;64.59;99941.14;106562;1309;22335;-84
2022/10/09 17:36:27;;;;;;;8.70;2.50;;;;;;;8.84;64.57;99937.87;106749;1302;22041;-84
2022/10/09 17:38:56;;;;;;;8.20;2.90;;;;;;;8.79;64.67;99939.35;106563;1309;22323;-84
2022/10/09 17:41:25;;;;;;;9.80;3.40;;;;;;;8.77;64.68;99939.10;106633;1309;22061;-84
2022/10/09 17:43:53;;;;;;;10.90;3.70;;;;;;;8.73;64.63;99938.09;106859;1287;22081;-85
2022/10/09 17:46:21;;;;;;;12.10;4.10;;;;;;;8.68;64.75;99939.19;106486;1309;22124;-84
2022/10/09 17:48:52;;;;;;;10.70;3.90;;;;;;;8.65;64.78;99935.08;106534;1304;22101;-86
2022/10/09 17:51:22;;;;;;;12.80;3.50;;;;;;;8.62;64.81;99935.41;106556;1309;22854;-85
2022/10/09 17:53:50;;;;;;;10.50;3.20;;;;;;;8.56;64.82;99931.46;106608;1309;21978;-85
2022/10/09 17:56:17;;;;;;;10.70;3.70;;;;;;;8.49;64.98;99935.17;106581;1297;22009;-85
2022/10/09 17:58:47;;;;;;;9.00;2.90;;;;;;;8.46;64.99;99941.20;106535;1309;21943;-85
2022/10/09 18:01:15;;;;;;;11.80;3.10;;;;;;;8.46;65.18;99943.86;106626;1301;22082;-85
2022/10/09 18:03:42;;;;;;;7.50;2.80;;;;;;;8.44;65.15;99944.66;106519;1309;22526;-86
2022/10/09 18:06:14;;;;;;;10.70;4.20;;;;;;;8.46;65.15;99949.36;106559;1309;22804;-85
2022/10/09 18:08:41;;;;;;;15.00;5.30;;;;;;;8.50;65.22;99947.17;106500;1297;22659;-85
2022/10/09 18:11:11;;;;;;;11.10;4.30;;;;;;;8.56;65.31;99946.20;106310;1309;22071;-85
2022/10/09 18:13:39;;;;;;;15.70;5.50;;;;;;;8.62;65.35;99946.61;106489;1309;22139;-86
2022/10/09 18:16:10;;;;;;;17.40;6.60;;;;;;;8.69;65.33;99943.40;106608;1310;22025;-86
2022/10/09 18:18:37;;;;;;;22.10;8.60;;;;;;;8.77;65.58;99944.60;106544;1304;22227;-86
2022/10/09 18:21:08;;;;;;;20.90;9.30;;;;;;;8.85;65.52;99945.45;106630;1301;21983;-86
2022/10/09 18:23:35;;;;;;;23.80;10.60;;;;;;;8.91;65.53;99946.90;106571;1310;22775;-87
2022/10/09 18:26:09;;;;;;;30.00;12.90;;;;;;;8.94;65.32;99945.15;106629;1309;22084;-87
2022/10/09 18:28:37;;;;;;;30.00;13.20;;;;;;;8.90;65.44;99946.80;106618;1309;22136;-87
2022/10/09 18:31:08;;;;;;;26.70;11.90;;;;;;;8.82;65.27;99941.86;106556;1310;22789;-86
2022/10/09 18:33:35;;;;;;;25.60;11.10;;;;;;;8.67;65.32;99944.93;106572;1309;22212;-87
2022/10/09 18:36:17;;;;;;;28.40;11.10;;;;;;;8.51;65.32;99944.34;106570;1309;22794;-87
2022/10/09 18:38:48;;;;;;;27.10;11.20;;;;;;;8.37;65.47;99944.46;106641;1309;22069;-86
2022/10/09 18:41:16;;;;;;;25.30;11.20;;;;;;;8.26;65.51;99940.38;106578;1310;22856;-86
2022/10/09 18:43:44;;;;;;;29.10;12.20;;;;;;;8.18;65.64;99941.80;106563;1303;22054;-86
2022/10/09 18:46:11;;;;;;;30.30;11.90;;;;;;;8.17;65.79;99943.29;106623;1309;22557;-86
2022/10/09 18:48:41;;;;;;;28.10;11.20;;;;;;;8.15;65.78;99945.34;106636;1309;22024;-86
2022/10/09 18:51:20;;;;;;;26.80;12.30;;;;;;;8.17;65.78;99947.90;106577;1310;22065;-86
2022/10/09 18:53:52;;;;;;;27.30;12.70;;;;;;;8.13;65.81;99946.48;106615;1310;21648;-86
2022/10/09 18:56:21;;;;;;;27.90;11.10;;;;;;;8.07;65.85;99947.13;106642;1309;22713;-86
2022/10/09 18:58:51;;;;;;;28.90;12.40;;;;;;;8.04;65.95;99946.91;106582;1309;22749;-86
2022/10/09 19:01:19;;;;;;;29.90;11.90;;;;;;;8.01;65.94;99941.39;106580;1308;22717;-85
2022/10/09 19:03:46;;;;;;;28.70;11.70;;;;;;;7.98;66.02;99944.38;106539;1308;22834;-85
2022/10/09 19:06:15;;;;;;;26.60;11.60;;;;;;;7.99;66.17;99942.20;106525;1309;22069;-85
2022/10/09 19:08:42;;;;;;;25.80;11.90;;;;;;;8.00;66.11;99941.08;106565;1309;22100;-84
2022/10/09 19:11:12;;;;;;;30.10;12.70;;;;;;;8.00;66.09;99941.77;106687;1309;22807;-85
2022/10/09 19:13:40;;;;;;;28.50;13.60;;;;;;;8.02;66.28;99937.81;106614;1310;22648;-86
2022/10/09 19:16:09;;;;;;;29.70;12.80;;;;;;;8.03;66.31;99941.64;106606;1309;22133;-87
2022/10/09 19:18:36;;;;;;;26.30;11.60;;;;;;;8.10;66.37;99941.48;106626;1309;22408;-87
2022/10/09 19:21:05;;;;;;;27.90;11.40;;;;;;;8.13;66.26;99940.44;106570;1309;22755;-87
2022/10/09 19:23:32;;;;;;;26.30;11.30;;;;;;;8.11;66.19;99934.88;106631;1309;22066;-88
2022/10/09 19:25:59;;;;;;;26.00;11.40;;;;;;;8.05;66.35;99935.00;106864;1297;22946;-86
2022/10/09 19:28:31;;;;;;;25.80;11.40;;;;;;;8.03;66.25;99932.26;106668;1301;22052;-86
2022/10/09 19:31:01;;;;;;;31.50;12.10;;;;;;;7.98;66.40;99932.46;106580;1298;22728;-86
2022/10/09 19:33:28;;;;;;;24.90;11.40;;;;;;;7.89;66.35;99931.15;106582;1309;22081;-85
2022/10/09 19:35:56;;;;;;;24.90;11.10;;;;;;;7.81;66.33;99931.83;106588;1309;22616;-85
2022/10/09 19:38:24;;;;;;;21.10;10.20;;;;;;;7.81;66.55;99935.20;106659;1308;22077;-85
2022/10/09 19:40:52;;;;;;;26.20;12.50;;;;;;;7.82;66.51;99932.50;106588;1309;22103;-86
2022/10/09 19:43:20;;;;;;;26.40;11.20;;;;;;;7.79;66.60;99931.79;106557;1309;22071;-86
2022/10/09 19:45:49;;;;;;;23.20;10.30;;;;;;;7.76;66.55;99929.23;106550;1309;22686;-86
2022/10/09 19:48:16;;;;;;;23.10;10.60;;;;;;;7.78;66.71;99925.64;106583;1309;22082;-85
2022/10/09 19:50:44;;;;;;;22.00;11.20;;;;;;;7.82;66.76;99929.86;106598;1309;22039;-86
2022/10/09 19:53:12;;;;;;;22.90;11.30;;;;;;;7.82;66.72;99925.60;106575;1309;22105;-87
2022/10/09 19:55:39;;;;;;;26.90;12.50;;;;;;;7.80;66.66;99922.33;106555;1309;22077;-85
2022/10/09 19:58:06;;;;;;;23.60;11.50;;;;;;;7.78;66.80;99923.70;106554;1309;22019;-86
2022/10/09 20:00:33;;;;;;;23.00;10.40;;;;;;;7.71;66.74;99928.08;106587;1309;21965;-86
2022/10/09 20:03:00;;;;;;;23.50;10.40;;;;;;;7.66;66.80;99927.28;106585;1309;22950;-85
2022/10/09 20:05:27;;;;;;;27.90;11.70;;;;;;;7.64;66.88;99924.50;106585;1309;22098;-85
2022/10/09 20:07:54;;;;;;;29.00;11.80;;;;;;;7.65;66.96;99916.48;106612;1309;22045;-86
2022/10/09 20:10:21;;;;;;;24.00;10.40;;;;;;;7.64;66.92;99914.42;106620;1309;22150;-86
2022/10/09 20:12:48;;;;;;;23.20;10.70;;;;;;;7.56;66.84;99913.18;106428;1311;22083;-85
2022/10/09 20:15:16;;;;;;;25.10;8.90;;;;;;;7.48;66.87;99915.14;106629;1309;22799;-86
2022/10/09 20:17:43;;;;;;;20.00;8.30;;;;;;;7.43;67.00;99917.30;106287;1312;22098;-86
2022/10/09 20:20:10;;;;;;;20.60;8.40;;;;;;;7.37;66.98;99914.96;106453;1310;22791;-86
2022/10/09 20:22:38;;;;;;;24.80;8.20;;;;;;;7.29;66.95;99918.63;106295;1311;22704;-86
2022/10/09 20:25:06;;;;;;;27.70;7.70;;;;;;;7.28;67.18;99917.11;106285;1310;22105;-85
2022/10/09 20:27:33;;;;;;;27.70;8.50;;;;;;;7.28;67.20;99914.09;106539;1310;22117;-85
2022/10/09 20:30:00;;;;;;;18.70;8.10;;;;;;;7.27;67.25;99914.13;106526;1306;22125;-84
2022/10/09 20:32:29;;;;;;;19.90;8.80;;;;;;;7.29;67.30;99916.87;106544;1310;22125;-85
2022/10/09 20:34:56;;;;;;;16.30;7.30;;;;;;;7.33;67.30;99919.38;106496;1310;22384;-85
2022/10/09 20:37:24;;;;;;;21.90;8.10;;;;;;;7.37;67.46;99921.17;106457;1310;22688;-85
2022/10/09 20:39:50;;;;;;;20.50;9.10;;;;;;;7.41;67.47;99919.37;106450;1310;22065;-85
2022/10/09 20:42:17;;;;;;;20.40;8.90;;;;;;;7.44;67.44;99920.63;106548;1310;22177;-86
2022/10/09 20:44:45;;;;;;;23.10;9.10;;;;;;;7.48;67.50;99918.49;106429;1312;22645;-85
2022/10/09 20:47:12;;;;;;;17.30;8.30;;;;;;;7.52;67.37;99920.29;106432;1307;22577;-86
2022/10/09 20:49:42;;;;;;;22.60;8.80;;;;;;;7.54;67.48;99921.95;106541;1310;22124;-85
2022/10/09 20:52:09;;;;;;;21.40;9.10;;;;;;;7.52;67.38;99914.95;106546;1310;21956;-85
2022/10/09 20:54:37;;;;;;;22.00;9.10;;;;;;;7.48;67.35;99906.82;106552;1311;22048;-86
2022/10/09 20:57:05;;;;;;;21.50;9.40;;;;;;;7.42;67.41;99910.11;106612;1309;21955;-86
2022/10/09 20:59:31;;;;;;;20.30;8.90;;;;;;;7.37;67.45;99908.92;106450;1310;22079;-85
2022/10/09 21:01:58;;;;;;;22.80;8.50;;;;;;;7.32;67.38;99901.68;106416;1311;22076;-85
2022/10/09 21:04:25;;;;;;;18.80;8.10;;;;;;;7.29;67.49;99900.95;106534;1310;22122;-86
2022/10/09 21:06:51;;;;;;;17.70;8.20;;;;;;;7.29;67.61;99902.18;106546;1310;22042;-85
2022/10/09 21:09:19;;;;;;;19.40;7.90;;;;;;;7.30;67.60;99897.15;106448;1310;22968;-86
2022/10/09 21:11:46;;;;;;;18.90;7.40;;;;;;;7.36;67.68;99892.30;106553;1311;21964;-86
2022/10/09 21:14:12;;;;;;;21.40;8.10;;;;;;;7.42;67.72;99892.91;106414;1306;22069;-85
2022/10/09 21:16:39;;;;;;;20.30;8.60;;;;;;;7.44;67.68;99890.36;106411;1312;22108;-86
2022/10/09 21:19:06;;;;;;;18.70;8.10;;;;;;;7.44;67.67;99882.89;106413;1312;22127;-86
2022/10/09 21:21:33;;;;;;;18.80;8.10;;;;;;;7.43;67.67;99882.41;106314;1312;22148;-86
2022/10/09 21:24:00;;;;;;;19.90;8.30;;;;;;;7.40;67.54;99882.75;106425;1312;22716;-86
2022/10/09 21:26:29;;;;;;;18.60;9.00;;;;;;;7.32;67.60;99881.30;106263;1313;22075;-85
2022/10/09 21:28:57;;;;;;;21.20;9.00;;;;;;;7.27;67.63;99882.45;106284;1312;22882;-84
2022/10/09 21:31:27;;;;;;;18.90;8.30;;;;;;;7.23;67.69;99882.45;106596;1307;22101;-84
2022/10/09 21:33:54;;;;;;;16.50;7.90;;;;;;;7.21;67.70;99883.77;106564;1312;22674;-84
2022/10/09 21:36:30;;;;;;;19.90;8.80;;;;;;;7.21;67.66;99881.84;106232;1313;22801;-85
2022/10/09 21:38:57;;;;;;;20.50;7.90;;;;;;;7.22;67.80;99880.20;106584;1294;22102;-84
2022/10/09 21:41:24;;;;;;;20.10;8.60;;;;;;;7.23;67.92;99884.73;106505;1312;21980;-85
2022/10/09 21:43:51;;;;;;;17.00;7.80;;;;;;;7.26;67.92;99880.55;106309;1312;22114;-85
2022/10/09 21:46:17;;;;;;;21.40;7.80;;;;;;;7.27;67.89;99882.27;106301;1313;22062;-84
2022/10/09 21:48:45;;;;;;;18.90;7.60;;;;;;;7.26;67.91;99885.66;106436;1311;22208;-85
2022/10/09 21:51:13;;;;;;;21.20;7.60;;;;;;;7.25;67.90;99883.05;106573;1312;22076;-85
2022/10/09 21:53:40;;;;;;;19.00;7.10;;;;;;;7.24;67.96;99882.73;106577;1311;22137;-84
2022/10/09 21:56:08;;;;;;;16.20;6.90;;;;;;;7.23;67.91;99876.94;106533;1312;22071;-85
2022/10/09 21:58:37;;;;;;;16.60;7.20;;;;;;;7.20;68.05;99875.48;106558;1310;22029;-84
2022/10/09 22:01:04;;;;;;;19.40;7.20;;;;;;;7.17;67.90;99870.31;106547;1311;22822;-84
2022/10/09 22:03:33;;;;;;;16.60;7.30;;;;;;;7.16;67.88;99870.92;106492;1312;22183;-84
2022/10/09 22:06:10;;;;;;;13.80;6.30;;;;;;;7.16;68.00;99867.34;106422;1312;22869;-85
2022/10/09 22:08:37;;;;;;;15.50;6.60;;;;;;;7.17;68.14;99864.09;106225;1312;22081;-85
2022/10/09 22:11:07;;;;;;;16.30;7.00;;;;;;;7.21;68.22;99860.40;106302;1312;22061;-84
2022/10/09 22:13:35;;;;;;;19.20;6.90;;;;;;;7.25;68.13;99858.80;106279;1312;22059;-84
2022/10/09 22:16:14;;;;;;;19.30;7.10;;;;;;;7.26;68.15;99855.04;106287;1312;22798;-85
2022/10/09 22:18:42;;;;;;;17.50;6.90;;;;;;;7.23;68.07;99850.54;106195;1312;22798;-85
2022/10/09 22:21:13;;;;;;;17.40;6.70;;;;;;;7.19;68.04;99850.38;106550;1312;22085;-84
2022/10/09 22:23:42;;;;;;;20.90;7.00;;;;;;;7.16;68.24;99849.48;106421;1312;22810;-84
2022/10/09 22:26:14;;;;;;;14.90;6.20;;;;;;;7.12;68.16;99850.19;106383;1312;22083;-84
2022/10/09 22:28:42;;;;;;;14.30;6.30;;;;;;;7.06;68.10;99847.26;106123;1310;22074;-84
2022/10/09 22:31:13;;;;;;;16.60;7.20;;;;;;;7.02;68.22;99848.70;106191;1312;21960;-84
2022/10/09 22:33:42;;;;;;;19.30;7.20;;;;;;;6.99;68.03;99847.75;106280;1312;22670;-84
2022/10/09 22:36:16;;;;;;;17.60;7.20;;;;;;;6.96;68.23;99847.57;106280;1313;22084;-85
2022/10/09 22:38:45;;;;;;;17.50;6.70;;;;;;;6.95;68.34;99846.02;106309;1312;22078;-84
2022/10/09 22:41:20;;;;;;;20.40;7.90;;;;;;;6.96;68.34;99844.86;106291;1312;22674;-85
2022/10/09 22:43:51;;;;;;;16.60;7.20;;;;;;;6.96;68.31;99840.81;106479;1312;22762;-84
2022/10/09 22:46:25;;;;;;;19.50;6.80;;;;;;;6.95;68.39;99839.79;106309;1312;22136;-85
2022/10/09 22:48:53;;;;;;;15.60;6.10;;;;;;;6.93;68.46;99835.83;106275;1312;22087;-84
2022/10/09 22:51:22;;;;;;;19.50;7.30;;;;;;;6.89;68.46;99832.13;106530;1312;22839;-85
2022/10/09 22:53:51;;;;;;;18.00;6.90;;;;;;;6.86;68.49;99835.09;106499;1312;22071;-85
2022/10/09 22:56:21;;;;;;;17.70;7.00;;;;;;;6.81;68.49;99829.27;106540;1312;22101;-86
2022/10/09 22:58:51;;;;;;;15.80;6.60;;;;;;;6.77;68.62;99825.56;106234;1312;22540;-85
2022/10/09 23:01:29;;;;;;;15.50;6.80;;;;;;;6.75;68.56;99827.39;106276;1312;21698;-84
2022/10/09 23:04:04;;;;;;;14.40;6.30;;;;;;;6.76;68.55;99821.55;106504;1312;22084;-84
2022/10/09 23:06:32;;;;;;;19.10;6.40;;;;;;;6.76;68.54;99820.83;106218;1310;22058;-85
2022/10/09 23:09:05;;;;;;;16.70;5.90;;;;;;;6.77;68.42;99816.16;106404;1312;22086;-84
2022/10/09 23:11:35;;;;;;;19.10;6.60;;;;;;;6.77;68.52;99811.55;106141;1314;22077;-85
2022/10/09 23:14:05;;;;;;;19.00;6.20;;;;;;;6.76;68.57;99811.79;106277;1314;22097;-85
2022/10/09 23:16:35;;;;;;;15.90;6.30;;;;;;;6.74;68.82;99810.64;106254;1313;22775;-84
2022/10/09 23:19:05;;;;;;;17.80;6.60;;;;;;;6.69;68.65;99812.28;106242;1315;22572;-85
2022/10/09 23:21:38;;;;;;;14.30;6.30;;;;;;;6.63;68.60;99812.36;106412;1313;22109;-85
2022/10/09 23:24:10;;;;;;;15.40;6.20;;;;;;;6.57;68.69;99813.16;106102;1314;22411;-85
2022/10/09 23:26:40;;;;;;;14.40;6.30;;;;;;;6.53;68.39;99811.58;106283;1314;21885;-84
2022/10/09 23:29:18;;;;;;;15.40;5.50;;;;;;;6.50;68.83;99812.94;106191;1314;22124;-84
2022/10/09 23:31:51;;;;;;;15.20;6.10;;;;;;;6.50;68.71;99806.56;106261;1314;22084;-84
2022/10/09 23:34:22;;;;;;;14.50;5.40;;;;;;;6.53;68.99;99807.30;106202;1314;22259;-84
2022/10/09 23:36:52;;;;;;;13.70;5.90;;;;;;;6.56;68.90;99807.00;106217;1314;22082;-85
2022/10/09 23:39:22;;;;;;;14.50;6.10;;;;;;;6.57;69.04;99803.79;106270;1313;22089;-85
2022/10/09 23:41:52;;;;;;;13.00;5.70;;;;;;;6.56;69.05;99802.05;106211;1313;22116;-85
2022/10/09 23:44:22;;;;;;;16.50;6.20;;;;;;;6.53;68.92;99798.99;106242;1313;22079;-85
2022/10/09 23:46:52;;;;;;;16.30;6.20;;;;;;;6.49;68.90;99799.16;106515;1312;22090;-85
2022/10/09 23:49:22;;;;;;;14.90;6.40;;;;;;;6.45;69.01;99799.02;106289;1313;22156;-85
2022/10/09 23:51:52;;;;;;;15.50;6.30;;;;;;;6.40;69.04;99797.27;106283;1313;22093;-85
2022/10/09 23:54:22;;;;;;;14.20;5.90;;;;;;;6.35;68.98;99796.80;106306;1313;22102;-85
2022/10/09 23:56:52;;;;;;;14.90;5.60;;;;;;;6.32;68.97;99794.48;106252;1313;22151;-84
2022/10/09 23:59:22;;;;;;;14.50;5.50;;;;;;;6.29;68.92;99790.67;106205;1314;22076;-85
